Mancio Lima, Brazil
Current Conditions -  °F | °C
As of 11:00 AM on Thursday 30 Oct 2014 (Local Time) from SBCZ Reporting Station
Broken Clouds Broken Clouds  
Wind Chill: 90°   Ceiling: 3000
Heat Index: 105°   Visibility: 6mi
Dew Point: 79°   Wind: 6mph
Humidity: 70%   Direction: 330°NNW
Pressure: 29.8"   Gusts: NA
Location:  7.62°S, 72.9°W
Report Text: SBCZ 301600Z 33005KT 9999 BKN030 32/26 Q1009
Loading
Personal Weather Stations






























Interactive Weather Map
Tropical Storm Tracking
New forecast layout! Learn more

10-Day Weather Forecast

Advertisements
Track Severe Weather on mobile